createdAt,value
2018-09-03T00:00:44.184Z,54.20
2018-09-03T00:03:12.389Z,54.39
2018-09-03T00:05:40.567Z,54.18
2018-09-03T00:08:08.738Z,54.37
2018-09-03T00:10:36.943Z,54.24
2018-09-03T00:13:05.271Z,54.48
2018-09-03T00:15:33.439Z,54.63
2018-09-03T00:18:01.631Z,54.86
2018-09-03T00:20:29.819Z,54.83
2018-09-03T00:22:57.992Z,54.63
2018-09-03T00:25:26.164Z,54.96
2018-09-03T00:27:54.379Z,54.97
2018-09-03T00:30:22.574Z,55.73
2018-09-03T00:32:55.927Z,55.54
2018-09-03T00:35:29.436Z,55.43
2018-09-03T00:38:02.899Z,55.67
2018-09-03T00:40:36.392Z,55.67
2018-09-03T00:43:09.780Z,56.57
2018-09-03T00:45:43.368Z,56.39
2018-09-03T00:48:11.544Z,57.18
2018-09-03T00:50:39.715Z,57.27
2018-09-03T00:53:07.915Z,57.51
2018-09-03T00:55:36.087Z,57.63
2018-09-03T00:58:04.311Z,58.54
2018-09-03T01:00:32.689Z,58.36
2018-09-03T01:03:00.873Z,58.70
2018-09-03T01:05:29.056Z,58.94
2018-09-03T01:07:57.247Z,59.36
2018-09-03T01:10:25.438Z,59.29
2018-09-03T01:12:53.599Z,60.04
2018-09-03T01:15:21.792Z,60.16
2018-09-03T01:17:49.963Z,60.20
2018-09-03T01:20:18.131Z,60.63
2018-09-03T01:22:46.337Z,60.69
2018-09-03T01:25:14.504Z,60.51
2018-09-03T01:27:42.731Z,60.54
2018-09-03T01:30:10.930Z,60.72
2018-09-03T01:32:39.107Z,60.99
2018-09-03T01:35:07.320Z,60.73
2018-09-03T01:37:35.489Z,60.25
2018-09-03T01:40:03.667Z,60.89
2018-09-03T01:42:31.859Z,61.00
2018-09-03T01:45:00.077Z,60.61
2018-09-03T01:47:28.281Z,60.03
2018-09-03T01:49:56.472Z,59.96
2018-09-03T01:52:24.661Z,59.65
2018-09-03T01:54:52.852Z,59.15
2018-09-03T01:57:21.046Z,59.39
2018-09-03T01:59:49.228Z,59.70
2018-09-03T02:02:17.433Z,60.31
2018-09-03T02:04:45.633Z,59.44
2018-09-03T02:07:13.837Z,59.63
2018-09-03T02:09:42.021Z,60.47
2018-09-03T02:12:12.221Z,60.47
2018-09-03T02:14:40.928Z,60.69
2018-09-03T02:17:09.928Z,60.18
2018-09-03T02:19:38.144Z,59.72
2018-09-03T02:22:06.567Z,59.39
2018-09-03T02:24:34.753Z,59.64
2018-09-03T02:27:02.963Z,60.08
2018-09-03T02:29:31.213Z,59.95
2018-09-03T02:31:59.453Z,60.57
2018-09-03T02:34:27.624Z,60.44
2018-09-03T02:36:55.809Z,60.34
2018-09-03T02:39:24.010Z,60.08
2018-09-03T02:41:52.187Z,59.85
2018-09-03T02:44:20.389Z,60.09
2018-09-03T02:46:48.574Z,59.75
2018-09-03T02:49:16.762Z,60.49
2018-09-03T02:51:44.969Z,60.47
2018-09-03T02:54:13.163Z,60.94
2018-09-03T02:56:41.331Z,60.40
2018-09-03T02:59:09.503Z,60.33
2018-09-03T03:01:37.678Z,61.09
2018-09-03T03:04:05.935Z,60.95
2018-09-03T03:06:34.122Z,60.38
2018-09-03T03:09:02.307Z,60.47
2018-09-03T03:11:30.492Z,59.84
2018-09-03T03:13:58.691Z,59.70
2018-09-03T03:16:26.869Z,60.37
2018-09-03T03:18:55.058Z,60.83
2018-09-03T03:21:23.243Z,61.21
2018-09-03T03:23:51.425Z,60.97
2018-09-03T03:26:19.595Z,60.33
2018-09-03T03:28:47.771Z,60.50
2018-09-03T03:31:15.973Z,60.10
2018-09-03T03:33:44.166Z,60.61
2018-09-03T03:36:12.356Z,60.82
2018-09-03T03:38:40.555Z,60.87
2018-09-03T03:41:08.723Z,60.69
2018-09-03T03:43:36.911Z,61.29
2018-09-03T03:46:05.089Z,60.96
2018-09-03T03:48:33.283Z,60.95
2018-09-03T03:51:01.456Z,61.38
2018-09-03T03:53:29.632Z,61.51
2018-09-03T03:55:57.807Z,61.52
2018-09-03T03:58:26.123Z,61.58
2018-09-03T04:00:54.299Z,61.77
2018-09-03T04:03:22.495Z,61.76
2018-09-03T04:05:50.677Z,62.71
2018-09-03T04:08:18.835Z,62.55
2018-09-03T04:10:46.998Z,62.80
2018-09-03T04:13:15.171Z,62.66
2018-09-03T04:15:43.331Z,62.63
2018-09-03T04:18:11.520Z,62.69
2018-09-03T04:20:39.711Z,62.62
2018-09-03T04:23:07.997Z,62.83
2018-09-03T04:25:36.076Z,62.67
2018-09-03T04:28:04.280Z,63.06
2018-09-03T04:30:32.473Z,63.16
2018-09-03T04:33:00.704Z,62.76
2018-09-03T04:35:28.904Z,63.17
2018-09-03T04:37:57.091Z,62.74
2018-09-03T04:40:25.268Z,62.94
2018-09-03T04:42:53.450Z,62.13
2018-09-03T04:45:21.673Z,62.10
2018-09-03T04:47:49.871Z,62.03
2018-09-03T04:50:18.084Z,62.15
2018-09-03T04:52:46.273Z,62.29
2018-09-03T04:55:14.628Z,62.52
2018-09-03T04:57:42.795Z,62.17
2018-09-03T05:00:11.014Z,62.46
2018-09-03T05:02:39.215Z,62.89
2018-09-03T05:05:07.399Z,62.63
2018-09-03T05:07:35.611Z,62.97
2018-09-03T05:10:03.882Z,62.69
2018-09-03T05:12:32.066Z,63.09
2018-09-03T05:15:00.268Z,62.85
2018-09-03T05:17:28.468Z,63.26
2018-09-03T05:19:56.642Z,63.08
2018-09-03T05:22:24.824Z,63.20
2018-09-03T05:24:53.052Z,62.87
2018-09-03T05:27:21.220Z,62.32
2018-09-03T05:29:49.414Z,62.14
2018-09-03T05:32:17.582Z,62.41
2018-09-03T05:34:45.848Z,62.22
2018-09-03T05:37:14.032Z,61.72
2018-09-03T05:39:42.212Z,61.77
2018-09-03T05:42:10.392Z,61.69
2018-09-03T05:44:38.569Z,61.41
2018-09-03T05:47:07.010Z,61.60
2018-09-03T05:49:35.447Z,61.67
2018-09-03T05:52:03.652Z,61.86
2018-09-03T05:54:31.890Z,61.36
2018-09-03T05:57:00.171Z,61.18
2018-09-03T05:59:28.356Z,61.07
2018-09-03T06:01:56.944Z,61.55
2018-09-03T06:04:25.134Z,61.78
2018-09-03T06:06:53.295Z,61.84
2018-09-03T06:09:22.294Z,61.55
2018-09-03T06:11:50.480Z,61.26
2018-09-03T06:14:18.742Z,60.78
2018-09-03T06:16:46.985Z,60.57
2018-09-03T06:19:15.237Z,60.10
2018-09-03T06:21:43.416Z,60.28
2018-09-03T06:24:11.589Z,60.35
2018-09-03T06:26:39.814Z,59.89
2018-09-03T06:29:07.944Z,59.17
2018-09-03T06:31:36.154Z,59.22
2018-09-03T06:34:04.776Z,59.19
2018-09-03T06:36:32.968Z,58.98
2018-09-03T06:39:01.207Z,58.74
2018-09-03T06:41:29.364Z,58.90
2018-09-03T06:43:57.569Z,58.19
2018-09-03T06:46:25.740Z,57.93
2018-09-03T06:48:53.957Z,58.41
2018-09-03T06:51:22.128Z,58.19
2018-09-03T06:53:50.355Z,58.07
2018-09-03T06:56:18.531Z,57.94
2018-09-03T06:58:46.739Z,58.45
2018-09-03T07:01:14.978Z,58.54
2018-09-03T07:03:43.844Z,58.29
2018-09-03T07:06:12.219Z,59.35
2018-09-03T07:08:40.801Z,58.73
2018-09-03T07:11:09.896Z,59.18
2018-09-03T07:13:38.066Z,59.36
2018-09-03T07:16:06.262Z,58.76
2018-09-03T07:18:34.480Z,59.06
2018-09-03T07:21:02.620Z,58.65
2018-09-03T07:23:30.795Z,59.00
2018-09-03T07:25:58.968Z,58.53
2018-09-03T07:28:27.164Z,58.45
2018-09-03T07:30:55.599Z,57.87
2018-09-03T07:33:23.775Z,58.24
2018-09-03T07:35:51.982Z,58.23
2018-09-03T07:38:20.171Z,58.21
2018-09-03T07:40:48.359Z,57.56
2018-09-03T07:43:16.573Z,58.03
2018-09-03T07:45:44.784Z,57.89
2018-09-03T07:48:13.003Z,57.96
2018-09-03T07:50:41.183Z,57.22
2018-09-03T07:53:09.351Z,57.77
2018-09-03T07:55:37.541Z,57.56
2018-09-03T07:58:06.277Z,57.08
2018-09-03T08:00:34.453Z,57.00
2018-09-03T08:03:02.627Z,57.64
2018-09-03T08:05:30.829Z,57.77
2018-09-03T08:07:59.035Z,57.16
2018-09-03T08:10:27.223Z,56.57
2018-09-03T08:12:55.461Z,56.98
2018-09-03T08:15:23.567Z,56.86
2018-09-03T08:17:51.759Z,56.77
2018-09-03T08:20:19.940Z,56.42
2018-09-03T08:22:48.146Z,56.18
2018-09-03T08:25:16.323Z,56.49
2018-09-03T08:27:44.491Z,55.83
2018-09-03T08:30:12.790Z,55.72
2018-09-03T08:32:40.909Z,56.20
2018-09-03T08:35:09.265Z,56.23
2018-09-03T08:37:37.440Z,55.96
2018-09-03T08:40:06.007Z,56.18
2018-09-03T08:42:34.133Z,56.33
2018-09-03T08:45:02.329Z,55.88
2018-09-03T08:47:30.500Z,55.93
2018-09-03T08:49:58.689Z,55.82
2018-09-03T08:52:26.871Z,56.06
2018-09-03T08:54:55.063Z,56.30
2018-09-03T08:57:23.484Z,55.70
2018-09-03T08:59:51.659Z,55.87
2018-09-03T09:02:19.838Z,56.44
2018-09-03T09:04:48.022Z,56.47
2018-09-03T09:07:16.235Z,56.42
2018-09-03T09:09:44.423Z,57.25
2018-09-03T09:12:12.661Z,57.07
2018-09-03T09:14:40.864Z,57.74
2018-09-03T09:17:09.038Z,58.74
2018-09-03T09:19:37.226Z,58.52
2018-09-03T09:22:05.403Z,58.75
2018-09-03T09:24:33.644Z,59.15
2018-09-03T09:27:01.801Z,58.45
2018-09-03T09:29:29.984Z,58.79
2018-09-03T09:31:58.173Z,58.71
2018-09-03T09:34:26.359Z,58.56
2018-09-03T09:36:54.621Z,57.79
2018-09-03T09:39:22.723Z,57.15
2018-09-03T09:41:50.899Z,57.85
2018-09-03T09:44:19.071Z,57.15
2018-09-03T09:46:47.274Z,57.00
2018-09-03T09:49:15.568Z,57.20
2018-09-03T09:51:43.738Z,58.15
2018-09-03T09:54:11.930Z,57.17
2018-09-03T09:56:40.128Z,57.10
2018-09-03T09:59:08.319Z,56.91
2018-09-03T10:01:37.947Z,56.49
2018-09-03T10:04:06.454Z,57.51
2018-09-03T10:06:34.626Z,57.16
2018-09-03T10:09:02.941Z,58.24
2018-09-03T10:11:31.116Z,57.83
2018-09-03T10:13:59.495Z,57.53
2018-09-03T10:16:27.684Z,58.04
2018-09-03T10:18:55.896Z,56.98
2018-09-03T10:21:24.086Z,56.59
2018-09-03T10:23:52.289Z,56.80
2018-09-03T10:26:20.560Z,56.61
2018-09-03T10:28:48.685Z,56.34
2018-09-03T10:31:17.456Z,55.68
2018-09-03T10:33:45.796Z,54.52
2018-09-03T10:36:14.030Z,55.25
2018-09-03T10:38:42.229Z,55.45
2018-09-03T10:41:10.420Z,54.79
2018-09-03T10:43:38.603Z,53.55
2018-09-03T10:46:06.855Z,53.91
2018-09-03T10:48:35.047Z,53.07
2018-09-03T10:51:03.236Z,53.45
2018-09-03T10:53:31.467Z,53.06
2018-09-03T10:55:59.652Z,53.16
2018-09-03T10:58:27.787Z,52.46
2018-09-03T11:00:56.012Z,51.37
2018-09-03T11:03:24.345Z,50.46
2018-09-03T11:05:52.535Z,50.61
2018-09-03T11:08:20.736Z,49.84
2018-09-03T11:10:48.929Z,49.89
2018-09-03T11:13:17.110Z,49.93
2018-09-03T11:15:45.407Z,50.62
2018-09-03T11:18:13.595Z,50.49
2018-09-03T11:20:41.800Z,51.09
2018-09-03T11:23:09.986Z,51.33
2018-09-03T11:25:38.172Z,50.42
2018-09-03T11:28:06.383Z,49.72
2018-09-03T11:30:34.583Z,50.03
2018-09-03T11:33:03.622Z,50.40
2018-09-03T11:35:31.839Z,50.41
2018-09-03T11:38:00.254Z,50.21
2018-09-03T11:40:28.418Z,49.70
2018-09-03T11:42:56.623Z,50.37
2018-09-03T11:45:24.882Z,49.50
2018-09-03T11:47:53.065Z,50.33
2018-09-03T11:50:21.672Z,49.54
2018-09-03T11:52:49.876Z,48.58
2018-09-03T11:55:18.042Z,49.09
2018-09-03T11:57:46.258Z,48.76
2018-09-03T12:00:19.716Z,48.60
2018-09-03T12:02:47.933Z,48.08
2018-09-03T12:05:17.366Z,48.74
2018-09-03T12:07:45.704Z,48.55
2018-09-03T12:10:13.894Z,48.96
2018-09-03T12:12:42.265Z,48.70
2018-09-03T12:15:48.919Z,49.62
2018-09-03T12:18:17.195Z,48.45
2018-09-03T12:20:45.407Z,48.03
2018-09-03T12:23:14.571Z,47.33
2018-09-03T12:25:42.795Z,46.93
2018-09-03T12:28:10.967Z,47.24
2018-09-03T12:30:39.175Z,48.16
2018-09-03T12:33:07.379Z,47.95
2018-09-03T12:35:35.587Z,47.13
2018-09-03T12:38:03.962Z,47.94
2018-09-03T12:40:32.205Z,48.35
2018-09-03T12:43:00.445Z,48.91
2018-09-03T12:45:33.939Z,48.38
2018-09-03T12:48:02.116Z,48.68
2018-09-03T12:50:30.299Z,48.66
2018-09-03T12:52:58.478Z,48.74
2018-09-03T12:55:26.679Z,49.42
2018-09-03T12:57:54.871Z,49.53
2018-09-03T13:00:23.064Z,49.84
2018-09-03T13:02:51.527Z,49.22
2018-09-03T13:05:20.358Z,49.07
2018-09-03T13:07:48.968Z,48.82
2018-09-03T13:10:17.153Z,48.73
2018-09-03T13:12:45.431Z,49.18
2018-09-03T13:15:14.738Z,49.16
2018-09-03T13:17:43.558Z,48.39
2018-09-03T13:20:11.935Z,47.96
2018-09-03T13:22:40.134Z,48.53
2018-09-03T13:25:08.339Z,48.55
2018-09-03T13:27:36.530Z,48.40
2018-09-03T13:30:05.389Z,48.77
2018-09-03T13:32:33.760Z,49.55
2018-09-03T13:35:02.971Z,49.45
2018-09-03T13:37:31.826Z,49.60
2018-09-03T13:40:00.183Z,48.89
2018-09-03T13:42:29.464Z,49.56
2018-09-03T13:44:58.055Z,49.60
2018-09-03T13:47:26.643Z,50.05
2018-09-03T13:49:54.916Z,50.40
2018-09-03T13:52:23.147Z,52.84
2018-09-03T13:54:51.357Z,53.52
2018-09-03T13:57:19.639Z,55.04
2018-09-03T13:59:47.844Z,54.36
2018-09-03T14:02:16.051Z,54.42
2018-09-03T14:04:44.358Z,54.76
2018-09-03T14:07:12.566Z,53.69
2018-09-03T14:09:40.834Z,55.50
2018-09-03T14:12:09.532Z,55.33
2018-09-03T14:14:37.792Z,54.15
2018-09-03T14:17:06.347Z,54.28
2018-09-03T14:19:34.583Z,54.68
2018-09-03T14:22:02.823Z,54.73
2018-09-03T14:24:31.021Z,54.64
2018-09-03T14:26:59.242Z,55.07
2018-09-03T14:29:27.434Z,55.42
2018-09-03T14:31:55.624Z,56.61
2018-09-03T14:34:23.803Z,57.37
2018-09-03T14:36:52.050Z,57.67
2018-09-03T14:39:20.195Z,58.33
2018-09-03T14:41:48.401Z,59.27
2018-09-03T14:44:16.574Z,58.98
2018-09-03T14:46:44.755Z,57.74
2018-09-03T14:49:12.944Z,58.25
2018-09-03T14:51:41.141Z,58.69
2018-09-03T14:54:09.319Z,58.31
2018-09-03T14:56:37.494Z,58.41
2018-09-03T14:59:05.712Z,58.78
2018-09-03T15:01:34.136Z,58.52
2018-09-03T15:04:02.438Z,59.04
2018-09-03T15:06:30.547Z,58.34
2018-09-03T15:08:58.750Z,59.14
2018-09-03T15:11:27.039Z,58.21
2018-09-03T15:13:58.892Z,58.31
2018-09-03T15:16:29.622Z,58.89
2018-09-03T15:18:58.067Z,58.50
2018-09-03T15:21:26.296Z,59.17
2018-09-03T15:23:54.480Z,58.81
2018-09-03T15:26:22.805Z,58.64
2018-09-03T15:28:51.054Z,58.82
2018-09-03T15:31:19.513Z,58.38
2018-09-03T15:33:48.384Z,58.54
2018-09-03T15:36:16.695Z,58.27
2018-09-03T15:38:44.882Z,58.57
2018-09-03T15:41:13.171Z,58.20
2018-09-03T15:43:41.389Z,58.50
2018-09-03T15:46:10.090Z,57.66
2018-09-03T15:48:38.391Z,57.48
2018-09-03T15:51:06.687Z,58.20
2018-09-03T15:53:36.151Z,58.28
2018-09-03T15:56:04.731Z,58.03
2018-09-03T15:58:32.927Z,58.49
2018-09-03T16:01:01.335Z,58.26
2018-09-03T16:03:29.831Z,58.51
2018-09-03T16:05:58.427Z,59.29
2018-09-03T16:08:26.634Z,59.06
2018-09-03T16:10:55.686Z,59.30
2018-09-03T16:13:24.419Z,59.48
2018-09-03T16:15:53.378Z,59.05
2018-09-03T16:18:21.756Z,59.15
2018-09-03T16:20:50.043Z,59.43
2018-09-03T16:23:18.199Z,58.81
2018-09-03T16:25:46.443Z,58.86
2018-09-03T16:28:14.686Z,57.68
2018-09-03T16:30:42.867Z,57.68
2018-09-03T16:33:11.071Z,58.15
2018-09-03T16:35:39.992Z,57.99
2018-09-03T16:38:08.204Z,57.79
2018-09-03T16:40:36.416Z,57.29
2018-09-03T16:43:04.667Z,57.57
2018-09-03T16:45:32.932Z,57.92
2018-09-03T16:48:01.189Z,57.79
2018-09-03T16:50:29.420Z,58.13
2018-09-03T16:52:57.703Z,58.07
2018-09-03T16:55:25.948Z,58.26
2018-09-03T16:57:54.194Z,58.38
2018-09-03T17:00:22.410Z,58.24
2018-09-03T17:02:50.606Z,58.20
2018-09-03T17:05:19.583Z,58.44
2018-09-03T17:07:47.956Z,58.42
2018-09-03T17:10:17.809Z,58.13
2018-09-03T17:12:46.071Z,58.56
2018-09-03T17:15:14.260Z,58.34
2018-09-03T17:17:42.524Z,58.81
2018-09-03T17:20:10.910Z,58.95
2018-09-03T17:22:39.158Z,58.54
2018-09-03T17:25:07.371Z,59.24
2018-09-03T17:27:37.000Z,59.02
2018-09-03T17:30:05.707Z,59.07
2018-09-03T17:32:34.843Z,59.17
2018-09-03T17:35:03.111Z,59.39
2018-09-03T17:37:31.317Z,58.96
2018-09-03T17:39:59.520Z,59.51
2018-09-03T17:42:27.695Z,59.55
2018-09-03T17:44:55.903Z,60.21
2018-09-03T17:47:24.087Z,60.02
2018-09-03T17:49:52.347Z,60.74
2018-09-03T17:52:20.487Z,59.96
2018-09-03T17:54:50.912Z,60.17
2018-09-03T17:57:19.240Z,60.20
2018-09-03T17:59:47.552Z,60.66
2018-09-03T18:02:16.790Z,60.30
2018-09-03T18:04:45.854Z,60.59
2018-09-03T18:07:15.221Z,60.81
2018-09-03T18:09:43.400Z,61.37
2018-09-03T18:12:13.686Z,61.21
2018-09-03T18:14:41.903Z,61.63
2018-09-03T18:17:10.532Z,61.44
2018-09-03T18:19:39.539Z,62.05
2018-09-03T18:22:08.764Z,62.03
2018-09-03T18:24:37.656Z,62.05
2018-09-03T18:27:06.803Z,61.72
2018-09-03T18:29:35.346Z,62.08
2018-09-03T18:32:04.567Z,61.28
2018-09-03T18:34:32.792Z,61.47
2018-09-03T18:37:01.132Z,61.62
2018-09-03T18:39:29.303Z,61.90
2018-09-03T18:41:58.050Z,61.82
2018-09-03T18:44:26.727Z,62.17
2018-09-03T18:46:54.987Z,62.11
2018-09-03T18:49:23.306Z,62.38
2018-09-03T18:51:51.611Z,61.93
2018-09-03T18:54:19.782Z,62.63
2018-09-03T18:56:48.041Z,62.63
2018-09-03T18:59:16.256Z,63.32
2018-09-03T19:01:44.511Z,63.31
2018-09-03T19:04:12.729Z,63.20
2018-09-03T19:06:41.027Z,63.30
2018-09-03T19:09:11.018Z,63.41
2018-09-03T19:11:39.487Z,63.80
2018-09-03T19:14:07.847Z,63.73
2018-09-03T19:16:36.051Z,63.47
2018-09-03T19:19:04.835Z,63.52
2018-09-03T19:21:33.240Z,64.07
2018-09-03T19:24:01.490Z,64.07
2018-09-03T19:26:29.714Z,64.55
2018-09-03T19:28:57.920Z,64.38
2018-09-03T19:31:26.159Z,64.48
2018-09-03T19:33:54.372Z,64.46
2018-09-03T19:36:22.636Z,64.38
2018-09-03T19:38:50.935Z,64.54
2018-09-03T19:41:19.140Z,64.68
2018-09-03T19:43:47.367Z,64.57
2018-09-03T19:46:15.768Z,65.06
2018-09-03T19:48:43.978Z,64.78
2018-09-03T19:51:12.161Z,65.07
2018-09-03T19:53:40.377Z,65.08
2018-09-03T19:56:08.603Z,64.83
2018-09-03T19:58:36.847Z,64.59
2018-09-03T20:01:05.872Z,64.48
2018-09-03T20:03:34.133Z,65.00
2018-09-03T20:06:02.754Z,64.67
2018-09-03T20:08:31.201Z,65.33
2018-09-03T20:10:59.466Z,65.34
2018-09-03T20:13:27.756Z,65.31
2018-09-03T20:15:55.931Z,65.36
2018-09-03T20:18:24.132Z,65.20
2018-09-03T20:20:52.318Z,65.18
2018-09-03T20:23:20.546Z,65.58
2018-09-03T20:25:48.677Z,65.03
2018-09-03T20:28:16.900Z,65.29
2018-09-03T20:30:45.179Z,65.77
2018-09-03T20:33:13.280Z,66.50
2018-09-03T20:35:41.484Z,66.94
2018-09-03T20:38:09.669Z,67.46
2018-09-03T20:40:37.868Z,67.95
2018-09-03T20:43:06.084Z,67.85
2018-09-03T20:45:34.260Z,68.64
2018-09-03T20:48:02.453Z,68.80
2018-09-03T20:50:30.635Z,68.76
2018-09-03T20:52:58.801Z,68.99
2018-09-03T20:55:26.997Z,69.40
2018-09-03T20:57:55.246Z,69.47
2018-09-03T21:00:23.432Z,69.71
2018-09-03T21:02:51.622Z,70.21
2018-09-03T21:05:19.814Z,70.03
2018-09-03T21:07:47.983Z,70.00
2018-09-03T21:10:16.167Z,70.52
2018-09-03T21:12:44.357Z,70.47
2018-09-03T21:15:12.540Z,70.54
2018-09-03T21:17:40.718Z,70.69
2018-09-03T21:20:08.895Z,70.30
2018-09-03T21:22:37.076Z,70.78
2018-09-03T21:25:05.271Z,70.32
2018-09-03T21:27:33.447Z,70.66
2018-09-03T21:30:01.624Z,70.40
2018-09-03T21:32:29.814Z,70.56
2018-09-03T21:34:58.003Z,70.57
2018-09-03T21:37:26.214Z,70.69
2018-09-03T21:39:54.466Z,70.33
2018-09-03T21:42:22.665Z,70.80
2018-09-03T21:44:50.852Z,70.61
2018-09-03T21:47:19.120Z,70.94
2018-09-03T21:49:47.298Z,70.87
2018-09-03T21:52:15.542Z,70.70
2018-09-03T21:54:43.728Z,70.71
2018-09-03T21:57:11.935Z,70.68
2018-09-03T21:59:40.132Z,70.59
2018-09-03T22:02:10.215Z,71.02
2018-09-03T22:04:39.945Z,70.99
2018-09-03T22:07:08.135Z,70.76
2018-09-03T22:09:36.328Z,70.82
2018-09-03T22:12:04.535Z,70.68
2018-09-03T22:14:32.751Z,70.75
2018-09-03T22:17:00.939Z,70.80
2018-09-03T22:19:29.126Z,71.08
2018-09-03T22:21:57.326Z,71.03
2018-09-03T22:24:25.588Z,71.43
2018-09-03T22:26:53.807Z,71.00
2018-09-03T22:29:22.002Z,71.23
2018-09-03T22:31:50.216Z,70.57
2018-09-03T22:34:18.396Z,71.16
2018-09-03T22:36:46.575Z,70.71
2018-09-03T22:39:14.763Z,70.85
2018-09-03T22:41:42.952Z,70.90
2018-09-03T22:44:11.131Z,71.07
2018-09-03T22:46:39.316Z,71.39
2018-09-03T22:49:07.735Z,71.17
2018-09-03T22:51:35.961Z,71.38
2018-09-03T22:54:04.141Z,71.39
2018-09-03T22:56:32.362Z,71.21
2018-09-03T22:59:00.544Z,71.20
2018-09-03T23:01:28.719Z,71.41
2018-09-03T23:03:56.891Z,71.10
2018-09-03T23:06:25.088Z,71.63
2018-09-03T23:08:53.263Z,71.75
2018-09-03T23:11:21.579Z,71.74
2018-09-03T23:13:49.640Z,71.70
2018-09-03T23:16:17.823Z,71.94
2018-09-03T23:18:46.001Z,71.70
2018-09-03T23:21:14.171Z,72.08
2018-09-03T23:23:42.346Z,71.56
2018-09-03T23:26:10.532Z,71.61
2018-09-03T23:28:38.733Z,71.30
2018-09-03T23:31:06.903Z,71.65
2018-09-03T23:33:35.091Z,71.23
2018-09-03T23:36:03.419Z,70.92
2018-09-03T23:38:31.611Z,71.20
2018-09-03T23:40:59.802Z,71.22
2018-09-03T23:43:27.983Z,71.46
2018-09-03T23:45:56.172Z,71.57
2018-09-03T23:48:24.343Z,71.99
2018-09-03T23:50:52.541Z,71.59
2018-09-03T23:53:20.729Z,71.50
2018-09-03T23:55:48.911Z,71.46
2018-09-03T23:58:17.114Z,71.68
